Impacts TAF Board
For situational awareness. Not to be used for flight planning purposes.
IDs:

KMAF - Midland Intl, TX, US

Issued at 1720 UTC 08 Aug 2020
Updated at 2156 UTC 08 Aug 2020
Potential Impact None Slight Moderate High
Time2153Z 08/22Z 08/23Z 09/00Z 09/01Z 09/02Z 09/03Z 09/04Z 09/05Z 09/06Z 09/07Z 09/08Z 09/09Z 09/10Z>>
Type OBS PRVL PRVL PRVL PRVL PRVL PRVL PRVL PRVL PRVL PRVL PRVL PRVL PRVL
VIS 10 >6 >6 >6 >6 >6 >6 >6 >6 >6 >6 >6 >6 >6
CIG -- -- -- -- -- -- -- -- -- -- -- -- -- --
Cover CLR SCT SCT SCT SCT SCT SCT SCT SCT SCT SCT SCT SCT SCT
FltCat VFR VFR VFR VFR VFR VFR VFR VFR VFR VFR VFR VFR VFR VFR
WX -- -- -- -- -- -- -- -- -- -- -- -- -- --
WDir 160 170 170 170 170 170 170 170 170 170 170 170 170 170
WSpd 16 15 15 15 15 15 11 11 11 11 11 11 11 11
WGst 28 22 22 22 22 22 -- -- -- -- -- -- -- --
Raw TAF
KMAF 081720Z 0818/0918 17015G22KT P6SM SCT250
  FM090300 17011KT P6SM SCT250


Raw METAR
KMAF 082153Z 16016G28KT 10SM CLR 36/13 A3004 RMK AO2 PK WND 15028/2153 SLP120 T03560133
KMAF 082053Z 15014G22KT 10SM CLR 36/13 A3005 RMK AO2 PK WND 16026/2028 SLP123 T03560133 58016
KMAF 081953Z 17016G22KT 10SM CLR 35/14 A3007 RMK AO2 SLP129 T03500139
KMAF 081853Z 19013G23KT 10SM CLR 34/15 A3009 RMK AO2 SLP134 T03440150

METAR Board
Radar Display
Forecast Discussion
For situational awareness. Not to be used for flight planning purposes.